Kriti Sfakia — D5GW7 — position and weather

sailwx.info

Track history (hours):
 
Tides and Currents Weather Stations Pressure Air Temp Water Temp Dewpoint Dewpoint Depression Visibility Wind Speed Wind Dir Waves Ship Positions

Kriti Sfakia

Last reported at 2018-Apr-17 08:31 UTC. Time now 2018-Apr-22 02:58 UTC.
Position N 30°52' E 032°19'.

Length 274 m; draft 17 m.

Type: Ship (hazmat cat C). MMSI: 636016587.

Date/timePositionNaut miles runAvg speedWind from/ knotsBaromVisibWave heightAir tempDewpointWater temp
2018-Apr-17 08:31N 30°52' E 032°19'0 8.7
2018-Apr-17 08:30N 30°52' E 032°19'5 8.6
2018-Apr-17 07:56N 30°57' E 032°19'5 9.1
2018-Apr-17 07:24N 31°01' E 032°19'4 8.8
2018-Apr-17 06:55N 31°06' E 032°19'4 8.6
2018-Apr-17 06:30N 31°09' E 032°19'3 6.3
2018-Apr-17 05:59N 31°12' E 032°20'4 7.2
2018-Apr-17 05:23N 31°17' E 032°22'2 6.1
2018-Apr-17 05:00N 31°19' E 032°22'5 9.1
2018-Apr-17 04:30N 31°23' E 032°23'5 4.9
2018-Apr-17 03:24N 31°27' E 032°19'1 1.8
2018-Apr-17 03:01N 31°27' E 032°18'0 0.0
2018-Apr-17 00:59N 31°27' E 032°18'0 0.0
2018-Apr-16 23:47N 31°27' E 032°18'0 0.0
2018-Apr-16 23:26N 31°27' E 032°18'0 0.0
2018-Apr-16 22:53N 31°27' E 032°18'0 0.0
2018-Apr-16 22:29N 31°27' E 032°18'0 0.0
2018-Apr-16 21:56N 31°27' E 032°18'0 0.0
2018-Apr-16 21:30N 31°27' E 032°18'0 0.1
2018-Apr-16 21:00N 31°27' E 032°18'0 0.0
2018-Apr-16 20:31N 31°27' E 032°18'0 0.0
2018-Apr-16 19:56N 31°27' E 032°18'0 0.0
2018-Apr-16 19:28N 31°27' E 032°18'0 0.0
2018-Apr-16 17:58N 31°27' E 032°18'0 0.0
2018-Apr-16 16:52N 31°27' E 032°18'0 0.0
2018-Apr-16 16:09N 31°27' E 032°18'0 0.0
2018-Apr-16 12:47N 31°27' E 032°18'0 0.0
2018-Apr-16 12:22N 31°27' E 032°18'0 0.0
2018-Apr-16 11:59N 31°27' E 032°18'0 0.0
2018-Apr-16 11:28N 31°27' E 032°18'0 0.0
2018-Apr-16 11:00N 31°27' E 032°18'0 0.0
2018-Apr-16 09:40N 31°27' E 032°18'0 0.0
2018-Apr-16 09:28N 31°27' E 032°18'0 0.0
2018-Apr-15 22:17N 31°27' E 032°18'2 4.6
2018-Apr-15 21:54N 31°29' E 032°17'3 6.5
2018-Apr-15 21:24N 31°31' E 032°14'410.6
2018-Apr-15 21:00N 31°34' E 032°10'610.8
2018-Apr-15 20:29N 31°38' E 032°06'9611.7
2018-Apr-15 12:17N 32°37' E 030°37'412.1
2018-Apr-15 11:57N 32°40' E 030°33'612.2
2018-Apr-15 11:27N 32°43' E 030°27'38711.9
2018-Apr-14 02:56N 36°29' E 024°05'511.5
2018-Apr-14 02:28N 36°34' E 024°03'611.9
2018-Apr-14 01:57N 36°40' E 024°01'611.7
2018-Apr-14 01:24N 36°46' E 023°59'511.6
2018-Apr-14 01:00N 36°51' E 023°58'2511.8
2018-Apr-13 22:51N 37°15' E 023°50'611.7
2018-Apr-13 22:21N 37°21' E 023°48'511.6
2018-Apr-13 21:56N 37°26' E 023°47'711.6
2018-Apr-13 21:21N 37°32' E 023°45'411.4
2018-Apr-13 20:58N 37°36' E 023°43'511.3
2018-Apr-13 20:30N 37°41' E 023°41'611.5
2018-Apr-13 20:01N 37°46' E 023°38'510.2
2018-Apr-13 19:30N 37°50' E 023°33'611.6
2018-Apr-13 19:00N 37°50' E 023°26'611.5
2018-Apr-13 18:30N 37°52' E 023°19'611.1
2018-Apr-13 18:00N 37°53' E 023°12'5 9.2
2018-Apr-13 17:30N 37°54' E 023°06'1 1.8
2018-Apr-13 17:00N 37°55' E 023°05'0 0.0
2018-Apr-13 16:30N 37°55' E 023°05'0 0.0
2018-Apr-13 15:58N 37°55' E 023°05'0 0.0
2018-Apr-13 15:28N 37°55' E 023°05'0 0.0
2018-Apr-13 14:58N 37°55' E 023°05'0 0.0
2018-Apr-13 14:28N 37°55' E 023°05'0 0.0
2018-Apr-13 13:58N 37°55' E 023°05'0 0.0
2018-Apr-13 13:28N 37°55' E 023°05'0 0.0
2018-Apr-13 12:58N 37°55' E 023°05'0 0.0
2018-Apr-13 12:28N 37°55' E 023°05'0 0.0
2018-Apr-13 11:58N 37°55' E 023°05'0 0.0
2018-Apr-13 11:28N 37°55' E 023°05'0 0.0
2018-Apr-13 10:58N 37°55' E 023°05'0 0.0
2018-Apr-13 10:28N 37°55' E 023°05'0 0.0
2018-Apr-13 09:58N 37°55' E 023°05'0 0.0
2018-Apr-13 09:28N 37°55' E 023°05'0 0.0
2018-Apr-13 08:58N 37°55' E 023°05'0 0.0
2018-Apr-13 08:28N 37°55' E 023°05'0 0.0
2018-Apr-13 07:58N 37°55' E 023°05'0 0.0
2018-Apr-13 07:28N 37°55' E 023°05'0 0.0
2018-Apr-13 06:58N 37°55' E 023°05'0 0.0
2018-Apr-13 06:28N 37°55' E 023°05'0 0.0
2018-Apr-13 05:58N 37°55' E 023°05'0 0.0
2018-Apr-13 05:28N 37°55' E 023°05'0 0.0
2018-Apr-13 04:58N 37°55' E 023°05'0 0.0
2018-Apr-13 04:28N 37°55' E 023°05'0 0.0
2018-Apr-13 03:58N 37°55' E 023°05'0 0.0
2018-Apr-13 03:28N 37°55' E 023°05'0 0.0
2018-Apr-13 02:58N 37°55' E 023°05'0 0.0
2018-Apr-13 02:28N 37°55' E 023°05'0 0.0
2018-Apr-13 01:58N 37°55' E 023°05'0 0.0
2018-Apr-13 01:28N 37°55' E 023°05'0 0.0
2018-Apr-13 00:58N 37°55' E 023°05'0 0.0
2018-Apr-13 00:28N 37°55' E 023°05'0 0.0
2018-Apr-12 23:58N 37°55' E 023°05'0 0.0
2018-Apr-12 23:28N 37°55' E 023°05'0 0.0
2018-Apr-12 22:58N 37°55' E 023°05'0 0.0
2018-Apr-12 22:28N 37°55' E 023°05'0 0.0
2018-Apr-12 21:58N 37°55' E 023°05'0 0.0
2018-Apr-12 21:28N 37°55' E 023°05'0 0.0
2018-Apr-12 20:58N 37°55' E 023°05'0 0.0
2018-Apr-12 20:28N 37°55' E 023°05'0 0.0
2018-Apr-12 19:58N 37°55' E 023°05'0 0.0
2018-Apr-12 19:28N 37°55' E 023°05'0 0.0
2018-Apr-12 18:58N 37°55' E 023°05'0 0.0
2018-Apr-12 17:16N 37°55' E 023°05'0 0.0
2018-Apr-12 16:58N 37°55' E 023°05'0 0.0
2018-Apr-12 16:28N 37°55' E 023°05'0 0.0
2018-Apr-12 15:58N 37°55' E 023°05'0 0.0
2018-Apr-12 15:28N 37°55' E 023°05'0 0.0
2018-Apr-12 14:58N 37°55' E 023°05'0 0.0
2018-Apr-12 14:28N 37°55' E 023°05'0 0.0
2018-Apr-12 13:58N 37°55' E 023°05'0 0.0
2018-Apr-12 13:28N 37°55' E 023°05'0 0.0
2018-Apr-12 12:58N 37°55' E 023°05'0 0.0
2018-Apr-12 12:28N 37°55' E 023°05'0 0.0
2018-Apr-12 11:58N 37°55' E 023°05'0 0.0
2018-Apr-12 11:28N 37°55' E 023°05'0 0.0
2018-Apr-12 10:58N 37°55' E 023°05'0 0.0
2018-Apr-12 10:28N 37°55' E 023°05'0 0.0
2018-Apr-12 09:58N 37°55' E 023°05'0 0.0
2018-Apr-12 09:28N 37°55' E 023°05'0 0.0
2018-Apr-12 08:58N 37°55' E 023°05'0 0.0
2018-Apr-12 08:28N 37°55' E 023°05'0 0.0
2018-Apr-12 07:58N 37°55' E 023°05'0 0.0
2018-Apr-12 07:28N 37°55' E 023°05'0 0.0
2018-Apr-12 06:58N 37°55' E 023°05'0 0.0
2018-Apr-12 06:28N 37°55' E 023°05'0 0.0
2018-Apr-12 05:58N 37°55' E 023°05'0 0.0
2018-Apr-12 05:28N 37°55' E 023°05'0 0.0
2018-Apr-12 04:58N 37°55' E 023°05'0 0.0
2018-Apr-12 04:28N 37°55' E 023°05'0 0.0
2018-Apr-12 03:58N 37°55' E 023°05'0 0.0
2018-Apr-12 03:28N 37°55' E 023°05'0 0.0
2018-Apr-12 02:58N 37°55' E 023°05'0 0.0
2018-Apr-12 02:28N 37°55' E 023°05'0 0.0
2018-Apr-12 01:58N 37°55' E 023°05'0 0.0
2018-Apr-12 01:28N 37°55' E 023°05'0 0.0
2018-Apr-12 00:58N 37°55' E 023°05'0 0.0
2018-Apr-12 00:28N 37°55' E 023°05'0 0.0
2018-Apr-11 23:58N 37°55' E 023°05'0 0.0
2018-Apr-11 23:28N 37°55' E 023°05'0 0.0
2018-Apr-11 22:58N 37°55' E 023°05'0 0.0
2018-Apr-11 22:28N 37°55' E 023°05'0 0.0
2018-Apr-11 21:58N 37°55' E 023°05'0 0.0
2018-Apr-11 21:28N 37°55' E 023°05'0 0.0
2018-Apr-11 20:58N 37°55' E 023°05'0 0.0
2018-Apr-11 20:28N 37°55' E 023°05'0 0.0
2018-Apr-11 19:58N 37°55' E 023°05'0 0.0
2018-Apr-11 19:28N 37°55' E 023°05'0 0.0
2018-Apr-11 18:58N 37°55' E 023°05'0 0.0
2018-Apr-11 18:28N 37°55' E 023°05'0 0.0
2018-Apr-11 17:58N 37°55' E 023°05'0 0.0
2018-Apr-11 17:28N 37°55' E 023°05'0 0.0
2018-Apr-11 16:58N 37°55' E 023°05'0 0.0
2018-Apr-11 16:28N 37°55' E 023°05'0 0.0
2018-Apr-11 15:58N 37°55' E 023°05'0 0.0
2018-Apr-11 15:28N 37°55' E 023°05'0 0.0
2018-Apr-11 14:58N 37°55' E 023°05'0 0.0
2018-Apr-11 14:28N 37°55' E 023°05'0 0.0
2018-Apr-11 13:58N 37°55' E 023°05'0 0.0
2018-Apr-11 13:28N 37°55' E 023°05'0 0.0
2018-Apr-11 12:58N 37°55' E 023°05'0 0.0
2018-Apr-11 12:28N 37°55' E 023°05'0 0.0
2018-Apr-11 11:58N 37°55' E 023°05'0 0.0
2018-Apr-11 11:28N 37°55' E 023°05'0 0.0
2018-Apr-11 10:58N 37°55' E 023°05'0 0.0
2018-Apr-11 10:28N 37°55' E 023°05'0 0.0
2018-Apr-11 09:58N 37°55' E 023°05'0 0.0
2018-Apr-11 09:28N 37°55' E 023°05'0 0.0
2018-Apr-11 08:58N 37°55' E 023°05'0 0.0
2018-Apr-11 08:28N 37°55' E 023°05'0 0.0
2018-Apr-11 07:58N 37°55' E 023°05'0 0.0
2018-Apr-11 07:28N 37°55' E 023°05'0 0.0
2018-Apr-11 06:58N 37°55' E 023°05'0 0.0
2018-Apr-11 06:28N 37°55' E 023°05'0 0.0
2018-Apr-11 05:58N 37°55' E 023°05'0 0.0
2018-Apr-11 05:28N 37°55' E 023°05'0 0.0
2018-Apr-11 04:58N 37°55' E 023°05'0 0.0
2018-Apr-11 04:28N 37°55' E 023°05'0 0.0
2018-Apr-11 03:58N 37°55' E 023°05'0 0.0
2018-Apr-11 03:28N 37°55' E 023°05'0 0.0
2018-Apr-11 02:58N 37°55' E 023°05'0 0.0
2018-Apr-11 02:28N 37°55' E 023°05'0 0.0
2018-Apr-11 01:58N 37°55' E 023°05'0 0.0
2018-Apr-11 01:28N 37°55' E 023°05'0 0.0
2018-Apr-11 00:58N 37°55' E 023°05'0 0.0
2018-Apr-11 00:28N 37°55' E 023°05'0 0.0
2018-Apr-10 23:58N 37°55' E 023°05'0 0.0
2018-Apr-10 23:28N 37°55' E 023°05'0 0.0
2018-Apr-10 22:58N 37°55' E 023°05'0 0.0
2018-Apr-10 22:28N 37°55' E 023°05'0 0.0
2018-Apr-10 21:58N 37°55' E 023°05'0 0.0
2018-Apr-10 21:28N 37°55' E 023°05'0 0.0
2018-Apr-10 20:58N 37°55' E 023°05'0 0.0
2018-Apr-10 20:28N 37°55' E 023°05'0 0.0
2018-Apr-10 19:58N 37°55' E 023°05'0 0.0
2018-Apr-10 19:25N 37°55' E 023°05'0 0.0
2018-Apr-10 18:58N 37°55' E 023°05'0 0.0
2018-Apr-10 18:28N 37°55' E 023°05'0 0.0
2018-Apr-10 17:58N 37°55' E 023°05'0 0.0
2018-Apr-10 17:28N 37°55' E 023°05'0 0.0
2018-Apr-10 16:58N 37°55' E 023°05'0 0.0
2018-Apr-10 16:28N 37°55' E 023°05'0 0.0
2018-Apr-10 15:58N 37°55' E 023°05'0 0.0
2018-Apr-10 15:28N 37°55' E 023°05'0 0.0
2018-Apr-10 14:58N 37°55' E 023°05'0 0.0
2018-Apr-10 14:28N 37°55' E 023°05'0 0.0
2018-Apr-10 13:58N 37°55' E 023°05'0 0.0
2018-Apr-10 13:28N 37°55' E 023°05'0 0.0
2018-Apr-10 12:58N 37°55' E 023°05'0 0.0
2018-Apr-10 12:28N 37°55' E 023°05'0 0.0
2018-Apr-10 11:58N 37°55' E 023°05'0 0.0
2018-Apr-10 11:28N 37°55' E 023°05'0 0.0
2018-Apr-10 10:58N 37°55' E 023°05'0 0.0
2018-Apr-10 10:28N 37°55' E 023°05'0 0.0
2018-Apr-10 09:58N 37°55' E 023°05'0 0.0
2018-Apr-10 09:28N 37°55' E 023°05'0 0.0
2018-Apr-10 08:58N 37°55' E 023°05'0 0.0
2018-Apr-10 08:28N 37°55' E 023°05'0 0.0
2018-Apr-10 07:58N 37°55' E 023°05'0 0.0
2018-Apr-10 07:28N 37°55' E 023°05'0 0.0
2018-Apr-10 06:58N 37°55' E 023°05'0 0.0
2018-Apr-10 06:28N 37°55' E 023°05'0 0.0
2018-Apr-10 05:58N 37°55' E 023°05'0 0.0
2018-Apr-10 05:28N 37°55' E 023°05'0 0.0
2018-Apr-10 04:58N 37°55' E 023°05'0 0.0
2018-Apr-10 04:28N 37°55' E 023°05'0 0.0
2018-Apr-10 03:58N 37°55' E 023°05'0 0.0
2018-Apr-10 03:28N 37°55' E 023°05'0 0.0
2018-Apr-10 02:58N 37°55' E 023°05'0 0.0
2018-Apr-10 02:30N 37°55' E 023°05'0 0.1
2018-Apr-10 02:00N 37°55' E 023°05'1 1.2
2018-Apr-10 01:30N 37°54' E 023°05'1 2.4
2018-Apr-10 01:00N 37°54' E 023°06'0 0.6
2018-Apr-10 00:31N 37°54' E 023°05'0 0.0
2018-Apr-10 00:00N 37°54' E 023°05'0 0.0
2018-Apr-09 23:30N 37°54' E 023°05'0 0.0
2018-Apr-09 23:00N 37°54' E 023°05'0 0.0
2018-Apr-09 22:30N 37°54' E 023°05'0 0.0
2018-Apr-09 22:00N 37°54' E 023°05'0 0.1
2018-Apr-09 21:30N 37°54' E 023°05'0 0.0
2018-Apr-09 21:00N 37°54' E 023°05'0 0.0
2018-Apr-09 20:30N 37°54' E 023°05'0 0.1
2018-Apr-09 20:00N 37°54' E 023°05'0 0.0
2018-Apr-09 19:30N 37°54' E 023°05'0 0.1
2018-Apr-09 19:00N 37°54' E 023°05'0 0.1
2018-Apr-09 18:30N 37°54' E 023°05'0 0.0
2018-Apr-09 18:00N 37°54' E 023°05'0 0.1
2018-Apr-09 17:30N 37°54' E 023°05'0 0.0
2018-Apr-09 17:00N 37°54' E 023°05'0 0.1
2018-Apr-09 16:30N 37°54' E 023°05'0 0.0
2018-Apr-09 16:00N 37°54' E 023°05'0 0.0
2018-Apr-09 15:30N 37°54' E 023°05'0 0.1
2018-Apr-09 15:00N 37°54' E 023°05'0 0.1
2018-Apr-09 14:30N 37°54' E 023°05'0 0.0
2018-Apr-09 14:00N 37°54' E 023°05'0 0.0
2018-Apr-09 13:30N 37°54' E 023°05'0 0.0
2018-Apr-09 13:00N 37°54' E 023°05'0 0.1
2018-Apr-09 12:30N 37°54' E 023°05'0 0.0
2018-Apr-09 12:00N 37°54' E 023°05'0 0.0
2018-Apr-09 11:30N 37°54' E 023°05'0 0.0
2018-Apr-09 11:00N 37°54' E 023°05'0 0.1
2018-Apr-09 10:30N 37°54' E 023°05'0 0.0
2018-Apr-09 10:00N 37°54' E 023°05'0 0.0
2018-Apr-09 09:30N 37°54' E 023°05'0 0.1
2018-Apr-09 09:00N 37°54' E 023°05'0 0.2
2018-Apr-09 08:30N 37°54' E 023°05'0 0.0
2018-Apr-09 08:00N 37°54' E 023°05'0 0.1
2018-Apr-09 07:30N 37°54' E 023°05'0 0.1
2018-Apr-09 07:00N 37°54' E 023°05'0 0.1
2018-Apr-09 06:30N 37°54' E 023°06'0 0.1
2018-Apr-09 06:00N 37°54' E 023°06'0 0.2
2018-Apr-09 05:30N 37°54' E 023°06'0 0.2
2018-Apr-09 05:00N 37°54' E 023°06'0 0.0
2018-Apr-09 04:30N 37°54' E 023°06'0 0.1
2018-Apr-09 04:00N 37°54' E 023°06'0 0.2
2018-Apr-09 03:30N 37°54' E 023°06'0 0.1
2018-Apr-09 03:00N 37°54' E 023°06'0 0.1
2018-Apr-09 02:30N 37°54' E 023°06'0 0.1
2018-Apr-09 02:00N 37°54' E 023°06'0 0.2
2018-Apr-09 01:30N 37°54' E 023°06'0 0.1
2018-Apr-09 01:00N 37°54' E 023°06'0 0.5
2018-Apr-09 00:30N 37°54' E 023°06'0 0.5
2018-Apr-09 00:00N 37°54' E 023°05'0 0.1
2018-Apr-08 23:30N 37°54' E 023°05'0 0.1
2018-Apr-08 23:00N 37°54' E 023°05'0 0.1
2018-Apr-08 22:30N 37°54' E 023°05'0 0.1
2018-Apr-08 22:00N 37°54' E 023°05'0 0.1
2018-Apr-08 21:30N 37°54' E 023°06'0 0.2
2018-Apr-08 21:00N 37°54' E 023°05'0 0.1
2018-Apr-08 20:30N 37°54' E 023°05'0 0.1
2018-Apr-08 20:00N 37°54' E 023°05'0 0.1
2018-Apr-08 19:30N 37°54' E 023°05'0 0.0
2018-Apr-08 19:00N 37°54' E 023°05'0 0.4
2018-Apr-08 18:30N 37°54' E 023°06'0 0.3
2018-Apr-08 18:00N 37°54' E 023°06'0 0.2
2018-Apr-08 17:30N 37°54' E 023°06'0 0.2
2018-Apr-08 17:00N 37°54' E 023°05'0 0.1
2018-Apr-08 16:30N 37°54' E 023°06'0 0.1
2018-Apr-08 16:00N 37°54' E 023°06'0 0.1
2018-Apr-08 15:30N 37°54' E 023°06'0 0.1
2018-Apr-08 15:00N 37°54' E 023°05'0 0.2
2018-Apr-08 14:30N 37°54' E 023°06'0 0.1
2018-Apr-08 14:00N 37°54' E 023°06'0 0.1
2018-Apr-08 13:30N 37°54' E 023°06'0 0.2
2018-Apr-08 13:00N 37°54' E 023°06'0 0.1
2018-Apr-08 12:30N 37°54' E 023°06'0 0.2
2018-Apr-08 12:00N 37°54' E 023°05'0 0.3
2018-Apr-08 11:30N 37°54' E 023°06'0 0.1
2018-Apr-08 11:00N 37°54' E 023°06'0 0.3
2018-Apr-08 10:30N 37°54' E 023°05'0 0.2
2018-Apr-08 10:00N 37°54' E 023°06'0 0.3
2018-Apr-08 09:30N 37°54' E 023°06'0 0.1
2018-Apr-08 09:00N 37°54' E 023°06'0 0.0
2018-Apr-08 08:30N 37°54' E 023°06'0 0.2
2018-Apr-08 08:00N 37°54' E 023°06'0 0.4
2018-Apr-08 07:30N 37°54' E 023°06'0 0.1
2018-Apr-08 07:00N 37°54' E 023°06'0 0.1
2018-Apr-08 06:30N 37°54' E 023°06'0 0.1
2018-Apr-08 06:00N 37°54' E 023°06'0 0.1
2018-Apr-08 05:30N 37°54' E 023°06'0 0.0
2018-Apr-08 05:00N 37°54' E 023°06'0 0.1
2018-Apr-08 04:30N 37°54' E 023°06'0 0.1
2018-Apr-08 04:00N 37°54' E 023°06'0 0.1
2018-Apr-08 03:30N 37°54' E 023°06'0 0.0
2018-Apr-08 03:00N 37°54' E 023°06'0 0.1
2018-Apr-08 02:30N 37°54' E 023°06'0 0.3
2018-Apr-08 02:00N 37°54' E 023°06'0 0.1
2018-Apr-08 01:30N 37°54' E 023°06'0 0.0
2018-Apr-08 01:00N 37°54' E 023°06'0 0.0
2018-Apr-08 00:30N 37°54' E 023°06'0 0.0
2018-Apr-08 00:00N 37°54' E 023°06'0 0.1
2018-Apr-07 23:30N 37°54' E 023°06'0 0.0
2018-Apr-07 23:00N 37°54' E 023°06'0 0.2
2018-Apr-07 22:30N 37°54' E 023°06'0 0.1
2018-Apr-07 22:00N 37°54' E 023°06'0 0.2
2018-Apr-07 21:30N 37°54' E 023°06'0 0.1
2018-Apr-07 21:00N 37°54' E 023°06'0 0.1
2018-Apr-07 20:30N 37°54' E 023°06'0 0.3
2018-Apr-07 20:00N 37°54' E 023°06'0 0.1
2018-Apr-07 19:30N 37°54' E 023°06'0 0.1
2018-Apr-07 19:00N 37°54' E 023°06'0 0.0
2018-Apr-07 18:30N 37°54' E 023°06'0 0.0
2018-Apr-07 18:00N 37°54' E 023°06'0 0.1
2018-Apr-07 17:30N 37°54' E 023°06'0 0.0
2018-Apr-07 17:00N 37°54' E 023°06'0 0.0
2018-Apr-07 16:30N 37°54' E 023°06'0 0.1
2018-Apr-07 16:00N 37°54' E 023°06'0 0.1
2018-Apr-07 15:30N 37°54' E 023°06'0 0.2
2018-Apr-07 15:00N 37°54' E 023°06'0 0.4
2018-Apr-07 14:30N 37°54' E 023°06'0 0.0
2018-Apr-07 14:00N 37°54' E 023°06'0 0.2
2018-Apr-07 13:30N 37°54' E 023°06'0 0.0
2018-Apr-07 13:00N 37°54' E 023°06'0 0.3
2018-Apr-07 12:30N 37°54' E 023°06'0 0.3
2018-Apr-07 12:00N 37°54' E 023°06'0 0.3
2018-Apr-07 11:30N 37°54' E 023°06'0 0.3
2018-Apr-07 11:00N 37°54' E 023°05'0 0.2
2018-Apr-07 10:30N 37°54' E 023°06'0 0.0
2018-Apr-07 10:00N 37°54' E 023°06'0 0.1
2018-Apr-07 09:30N 37°54' E 023°05'0 0.2
2018-Apr-07 09:00N 37°54' E 023°05'  
Track history (hours):
 
Tides and Currents Weather Stations Pressure Air Temp Water Temp Dewpoint Dewpoint Depression Visibility Wind Speed Wind Dir Waves Ship Positions

Kriti Sfakia

Last reported at 2018-Apr-17 08:31 UTC. Time now 2018-Apr-22 02:58 UTC.
Position N 30°52' E 032°19'.

Length 274 m; draft 17 m.

Type: Ship (hazmat cat C). MMSI: 636016587.

Date/timePositionNaut miles runAvg speedWind from/ knotsBaromVisibWave heightAir tempDewpointWater temp
2018-Apr-17 08:31N 30°52' E 032°19'0 8.7
2018-Apr-17 08:30N 30°52' E 032°19'5 8.6
2018-Apr-17 07:56N 30°57' E 032°19'5 9.1
2018-Apr-17 07:24N 31°01' E 032°19'4 8.8
2018-Apr-17 06:55N 31°06' E 032°19'4 8.6
2018-Apr-17 06:30N 31°09' E 032°19'3 6.3
2018-Apr-17 05:59N 31°12' E 032°20'4 7.2
2018-Apr-17 05:23N 31°17' E 032°22'2 6.1
2018-Apr-17 05:00N 31°19' E 032°22'5 9.1
2018-Apr-17 04:30N 31°23' E 032°23'5 4.9
2018-Apr-17 03:24N 31°27' E 032°19'1 1.8
2018-Apr-17 03:01N 31°27' E 032°18'0 0.0
2018-Apr-17 00:59N 31°27' E 032°18'0 0.0
2018-Apr-16 23:47N 31°27' E 032°18'0 0.0
2018-Apr-16 23:26N 31°27' E 032°18'0 0.0
2018-Apr-16 22:53N 31°27' E 032°18'0 0.0
2018-Apr-16 22:29N 31°27' E 032°18'0 0.0
2018-Apr-16 21:56N 31°27' E 032°18'0 0.0
2018-Apr-16 21:30N 31°27' E 032°18'0 0.1
2018-Apr-16 21:00N 31°27' E 032°18'0 0.0
2018-Apr-16 20:31N 31°27' E 032°18'0 0.0
2018-Apr-16 19:56N 31°27' E 032°18'0 0.0
2018-Apr-16 19:28N 31°27' E 032°18'0 0.0
2018-Apr-16 17:58N 31°27' E 032°18'0 0.0
2018-Apr-16 16:52N 31°27' E 032°18'0 0.0
2018-Apr-16 16:09N 31°27' E 032°18'0 0.0
2018-Apr-16 12:47N 31°27' E 032°18'0 0.0
2018-Apr-16 12:22N 31°27' E 032°18'0 0.0
2018-Apr-16 11:59N 31°27' E 032°18'0 0.0
2018-Apr-16 11:28N 31°27' E 032°18'0 0.0
2018-Apr-16 11:00N 31°27' E 032°18'0 0.0
2018-Apr-16 09:40N 31°27' E 032°18'0 0.0
2018-Apr-16 09:28N 31°27' E 032°18'0 0.0
2018-Apr-15 22:17N 31°27' E 032°18'2 4.6
2018-Apr-15 21:54N 31°29' E 032°17'3 6.5
2018-Apr-15 21:24N 31°31' E 032°14'410.6
2018-Apr-15 21:00N 31°34' E 032°10'610.8
2018-Apr-15 20:29N 31°38' E 032°06'9611.7
2018-Apr-15 12:17N 32°37' E 030°37'412.1
2018-Apr-15 11:57N 32°40' E 030°33'612.2
2018-Apr-15 11:27N 32°43' E 030°27'38711.9
2018-Apr-14 02:56N 36°29' E 024°05'511.5
2018-Apr-14 02:28N 36°34' E 024°03'611.9
2018-Apr-14 01:57N 36°40' E 024°01'611.7
2018-Apr-14 01:24N 36°46' E 023°59'511.6
2018-Apr-14 01:00N 36°51' E 023°58'2511.8
2018-Apr-13 22:51N 37°15' E 023°50'611.7
2018-Apr-13 22:21N 37°21' E 023°48'511.6
2018-Apr-13 21:56N 37°26' E 023°47'711.6
2018-Apr-13 21:21N 37°32' E 023°45'411.4
2018-Apr-13 20:58N 37°36' E 023°43'511.3
2018-Apr-13 20:30N 37°41' E 023°41'611.5
2018-Apr-13 20:01N 37°46' E 023°38'510.2
2018-Apr-13 19:30N 37°50' E 023°33'611.6
2018-Apr-13 19:00N 37°50' E 023°26'611.5
2018-Apr-13 18:30N 37°52' E 023°19'611.1
2018-Apr-13 18:00N 37°53' E 023°12'5 9.2
2018-Apr-13 17:30N 37°54' E 023°06'1 1.8
2018-Apr-13 17:00N 37°55' E 023°05'0 0.0
2018-Apr-13 16:30N 37°55' E 023°05'0 0.0
2018-Apr-13 15:58N 37°55' E 023°05'0 0.0
2018-Apr-13 15:28N 37°55' E 023°05'0 0.0
2018-Apr-13 14:58N 37°55' E 023°05'0 0.0
2018-Apr-13 14:28N 37°55' E 023°05'0 0.0
2018-Apr-13 13:58N 37°55' E 023°05'0 0.0
2018-Apr-13 13:28N 37°55' E 023°05'0 0.0
2018-Apr-13 12:58N 37°55' E 023°05'0 0.0
2018-Apr-13 12:28N 37°55' E 023°05'0 0.0
2018-Apr-13 11:58N 37°55' E 023°05'0 0.0
2018-Apr-13 11:28N 37°55' E 023°05'0 0.0
2018-Apr-13 10:58N 37°55' E 023°05'0 0.0
2018-Apr-13 10:28N 37°55' E 023°05'0 0.0
2018-Apr-13 09:58N 37°55' E 023°05'0 0.0
2018-Apr-13 09:28N 37°55' E 023°05'0 0.0
2018-Apr-13 08:58N 37°55' E 023°05'0 0.0
2018-Apr-13 08:28N 37°55' E 023°05'0 0.0
2018-Apr-13 07:58N 37°55' E 023°05'0 0.0
2018-Apr-13 07:28N 37°55' E 023°05'0 0.0
2018-Apr-13 06:58N 37°55' E 023°05'0 0.0
2018-Apr-13 06:28N 37°55' E 023°05'0 0.0
2018-Apr-13 05:58N 37°55' E 023°05'0 0.0
2018-Apr-13 05:28N 37°55' E 023°05'0 0.0
2018-Apr-13 04:58N 37°55' E 023°05'0 0.0
2018-Apr-13 04:28N 37°55' E 023°05'0 0.0
2018-Apr-13 03:58N 37°55' E 023°05'0 0.0
2018-Apr-13 03:28N 37°55' E 023°05'0 0.0
2018-Apr-13 02:58N 37°55' E 023°05'0 0.0
2018-Apr-13 02:28N 37°55' E 023°05'0 0.0
2018-Apr-13 01:58N 37°55' E 023°05'0 0.0
2018-Apr-13 01:28N 37°55' E 023°05'0 0.0
2018-Apr-13 00:58N 37°55' E 023°05'0 0.0
2018-Apr-13 00:28N 37°55' E 023°05'0 0.0
2018-Apr-12 23:58N 37°55' E 023°05'0 0.0
2018-Apr-12 23:28N 37°55' E 023°05'0 0.0
2018-Apr-12 22:58N 37°55' E 023°05'0 0.0
2018-Apr-12 22:28N 37°55' E 023°05'0 0.0
2018-Apr-12 21:58N 37°55' E 023°05'0 0.0
2018-Apr-12 21:28N 37°55' E 023°05'0 0.0
2018-Apr-12 20:58N 37°55' E 023°05'0 0.0
2018-Apr-12 20:28N 37°55' E 023°05'0 0.0
2018-Apr-12 19:58N 37°55' E 023°05'0 0.0
2018-Apr-12 19:28N 37°55' E 023°05'0 0.0
2018-Apr-12 18:58N 37°55' E 023°05'0 0.0
2018-Apr-12 17:16N 37°55' E 023°05'0 0.0
2018-Apr-12 16:58N 37°55' E 023°05'0 0.0
2018-Apr-12 16:28N 37°55' E 023°05'0 0.0
2018-Apr-12 15:58N 37°55' E 023°05'0 0.0
2018-Apr-12 15:28N 37°55' E 023°05'0 0.0
2018-Apr-12 14:58N 37°55' E 023°05'0 0.0
2018-Apr-12 14:28N 37°55' E 023°05'0 0.0
2018-Apr-12 13:58N 37°55' E 023°05'0 0.0
2018-Apr-12 13:28N 37°55' E 023°05'0 0.0
2018-Apr-12 12:58N 37°55' E 023°05'0 0.0
2018-Apr-12 12:28N 37°55' E 023°05'0 0.0
2018-Apr-12 11:58N 37°55' E 023°05'0 0.0
2018-Apr-12 11:28N 37°55' E 023°05'0 0.0
2018-Apr-12 10:58N 37°55' E 023°05'0 0.0
2018-Apr-12 10:28N 37°55' E 023°05'0 0.0
2018-Apr-12 09:58N 37°55' E 023°05'0 0.0
2018-Apr-12 09:28N 37°55' E 023°05'0 0.0
2018-Apr-12 08:58N 37°55' E 023°05'0 0.0
2018-Apr-12 08:28N 37°55' E 023°05'0 0.0
2018-Apr-12 07:58N 37°55' E 023°05'0 0.0
2018-Apr-12 07:28N 37°55' E 023°05'0 0.0
2018-Apr-12 06:58N 37°55' E 023°05'0 0.0
2018-Apr-12 06:28N 37°55' E 023°05'0 0.0
2018-Apr-12 05:58N 37°55' E 023°05'0 0.0
2018-Apr-12 05:28N 37°55' E 023°05'0 0.0
2018-Apr-12 04:58N 37°55' E 023°05'0 0.0
2018-Apr-12 04:28N 37°55' E 023°05'0 0.0
2018-Apr-12 03:58N 37°55' E 023°05'0 0.0
2018-Apr-12 03:28N 37°55' E 023°05'0 0.0
2018-Apr-12 02:58N 37°55' E 023°05'0 0.0
2018-Apr-12 02:28N 37°55' E 023°05'0 0.0
2018-Apr-12 01:58N 37°55' E 023°05'0 0.0
2018-Apr-12 01:28N 37°55' E 023°05'0 0.0
2018-Apr-12 00:58N 37°55' E 023°05'0 0.0
2018-Apr-12 00:28N 37°55' E 023°05'0 0.0
2018-Apr-11 23:58N 37°55' E 023°05'0 0.0
2018-Apr-11 23:28N 37°55' E 023°05'0 0.0
2018-Apr-11 22:58N 37°55' E 023°05'0 0.0
2018-Apr-11 22:28N 37°55' E 023°05'0 0.0
2018-Apr-11 21:58N 37°55' E 023°05'0 0.0
2018-Apr-11 21:28N 37°55' E 023°05'0 0.0
2018-Apr-11 20:58N 37°55' E 023°05'0 0.0
2018-Apr-11 20:28N 37°55' E 023°05'0 0.0
2018-Apr-11 19:58N 37°55' E 023°05'0 0.0
2018-Apr-11 19:28N 37°55' E 023°05'0 0.0
2018-Apr-11 18:58N 37°55' E 023°05'0 0.0
2018-Apr-11 18:28N 37°55' E 023°05'0 0.0
2018-Apr-11 17:58N 37°55' E 023°05'0 0.0
2018-Apr-11 17:28N 37°55' E 023°05'0 0.0
2018-Apr-11 16:58N 37°55' E 023°05'0 0.0
2018-Apr-11 16:28N 37°55' E 023°05'0 0.0
2018-Apr-11 15:58N 37°55' E 023°05'0 0.0
2018-Apr-11 15:28N 37°55' E 023°05'0 0.0
2018-Apr-11 14:58N 37°55' E 023°05'0 0.0
2018-Apr-11 14:28N 37°55' E 023°05'0 0.0
2018-Apr-11 13:58N 37°55' E 023°05'0 0.0
2018-Apr-11 13:28N 37°55' E 023°05'0 0.0
2018-Apr-11 12:58N 37°55' E 023°05'0 0.0
2018-Apr-11 12:28N 37°55' E 023°05'0 0.0
2018-Apr-11 11:58N 37°55' E 023°05'0 0.0
2018-Apr-11 11:28N 37°55' E 023°05'0 0.0
2018-Apr-11 10:58N 37°55' E 023°05'0 0.0
2018-Apr-11 10:28N 37°55' E 023°05'0 0.0
2018-Apr-11 09:58N 37°55' E 023°05'0 0.0
2018-Apr-11 09:28N 37°55' E 023°05'0 0.0
2018-Apr-11 08:58N 37°55' E 023°05'0 0.0
2018-Apr-11 08:28N 37°55' E 023°05'0 0.0
2018-Apr-11 07:58N 37°55' E 023°05'0 0.0
2018-Apr-11 07:28N 37°55' E 023°05'0 0.0
2018-Apr-11 06:58N 37°55' E 023°05'0 0.0
2018-Apr-11 06:28N 37°55' E 023°05'0 0.0
2018-Apr-11 05:58N 37°55' E 023°05'0 0.0
2018-Apr-11 05:28N 37°55' E 023°05'0 0.0
2018-Apr-11 04:58N 37°55' E 023°05'0 0.0
2018-Apr-11 04:28N 37°55' E 023°05'0 0.0
2018-Apr-11 03:58N 37°55' E 023°05'0 0.0
2018-Apr-11 03:28N 37°55' E 023°05'0 0.0
2018-Apr-11 02:58N 37°55' E 023°05'0 0.0
2018-Apr-11 02:28N 37°55' E 023°05'0 0.0
2018-Apr-11 01:58N 37°55' E 023°05'0 0.0
2018-Apr-11 01:28N 37°55' E 023°05'0 0.0
2018-Apr-11 00:58N 37°55' E 023°05'0 0.0
2018-Apr-11 00:28N 37°55' E 023°05'0 0.0
2018-Apr-10 23:58N 37°55' E 023°05'0 0.0
2018-Apr-10 23:28N 37°55' E 023°05'0 0.0
2018-Apr-10 22:58N 37°55' E 023°05'0 0.0
2018-Apr-10 22:28N 37°55' E 023°05'0 0.0
2018-Apr-10 21:58N 37°55' E 023°05'0 0.0
2018-Apr-10 21:28N 37°55' E 023°05'0 0.0
2018-Apr-10 20:58N 37°55' E 023°05'0 0.0
2018-Apr-10 20:28N 37°55' E 023°05'0 0.0
2018-Apr-10 19:58N 37°55' E 023°05'0 0.0
2018-Apr-10 19:25N 37°55' E 023°05'0 0.0
2018-Apr-10 18:58N 37°55' E 023°05'0 0.0
2018-Apr-10 18:28N 37°55' E 023°05'0 0.0
2018-Apr-10 17:58N 37°55' E 023°05'0 0.0
2018-Apr-10 17:28N 37°55' E 023°05'0 0.0
2018-Apr-10 16:58N 37°55' E 023°05'0 0.0
2018-Apr-10 16:28N 37°55' E 023°05'0 0.0
2018-Apr-10 15:58N 37°55' E 023°05'0 0.0
2018-Apr-10 15:28N 37°55' E 023°05'0 0.0
2018-Apr-10 14:58N 37°55' E 023°05'0 0.0
2018-Apr-10 14:28N 37°55' E 023°05'0 0.0
2018-Apr-10 13:58N 37°55' E 023°05'0 0.0
2018-Apr-10 13:28N 37°55' E 023°05'0 0.0
2018-Apr-10 12:58N 37°55' E 023°05'0 0.0
2018-Apr-10 12:28N 37°55' E 023°05'0 0.0
2018-Apr-10 11:58N 37°55' E 023°05'0 0.0
2018-Apr-10 11:28N 37°55' E 023°05'0 0.0
2018-Apr-10 10:58N 37°55' E 023°05'0 0.0
2018-Apr-10 10:28N 37°55' E 023°05'0 0.0
2018-Apr-10 09:58N 37°55' E 023°05'0 0.0
2018-Apr-10 09:28N 37°55' E 023°05'0 0.0
2018-Apr-10 08:58N 37°55' E 023°05'0 0.0
2018-Apr-10 08:28N 37°55' E 023°05'0 0.0
2018-Apr-10 07:58N 37°55' E 023°05'0 0.0
2018-Apr-10 07:28N 37°55' E 023°05'0 0.0
2018-Apr-10 06:58N 37°55' E 023°05'0 0.0
2018-Apr-10 06:28N 37°55' E 023°05'0 0.0
2018-Apr-10 05:58N 37°55' E 023°05'0 0.0
2018-Apr-10 05:28N 37°55' E 023°05'0 0.0
2018-Apr-10 04:58N 37°55' E 023°05'0 0.0
2018-Apr-10 04:28N 37°55' E 023°05'0 0.0
2018-Apr-10 03:58N 37°55' E 023°05'0 0.0
2018-Apr-10 03:28N 37°55' E 023°05'0 0.0
2018-Apr-10 02:58N 37°55' E 023°05'0 0.0
2018-Apr-10 02:30N 37°55' E 023°05'0 0.1
2018-Apr-10 02:00N 37°55' E 023°05'1 1.2
2018-Apr-10 01:30N 37°54' E 023°05'1 2.4
2018-Apr-10 01:00N 37°54' E 023°06'0 0.6
2018-Apr-10 00:31N 37°54' E 023°05'0 0.0
2018-Apr-10 00:00N 37°54' E 023°05'0 0.0
2018-Apr-09 23:30N 37°54' E 023°05'0 0.0
2018-Apr-09 23:00N 37°54' E 023°05'0 0.0
2018-Apr-09 22:30N 37°54' E 023°05'0 0.0
2018-Apr-09 22:00N 37°54' E 023°05'0 0.1
2018-Apr-09 21:30N 37°54' E 023°05'0 0.0
2018-Apr-09 21:00N 37°54' E 023°05'0 0.0
2018-Apr-09 20:30N 37°54' E 023°05'0 0.1
2018-Apr-09 20:00N 37°54' E 023°05'0 0.0
2018-Apr-09 19:30N 37°54' E 023°05'0 0.1
2018-Apr-09 19:00N 37°54' E 023°05'0 0.1
2018-Apr-09 18:30N 37°54' E 023°05'0 0.0
2018-Apr-09 18:00N 37°54' E 023°05'0 0.1
2018-Apr-09 17:30N 37°54' E 023°05'0 0.0
2018-Apr-09 17:00N 37°54' E 023°05'0 0.1
2018-Apr-09 16:30N 37°54' E 023°05'0 0.0
2018-Apr-09 16:00N 37°54' E 023°05'0 0.0
2018-Apr-09 15:30N 37°54' E 023°05'0 0.1
2018-Apr-09 15:00N 37°54' E 023°05'0 0.1
2018-Apr-09 14:30N 37°54' E 023°05'0 0.0
2018-Apr-09 14:00N 37°54' E 023°05'0 0.0
2018-Apr-09 13:30N 37°54' E 023°05'0 0.0
2018-Apr-09 13:00N 37°54' E 023°05'0 0.1
2018-Apr-09 12:30N 37°54' E 023°05'0 0.0
2018-Apr-09 12:00N 37°54' E 023°05'0 0.0
2018-Apr-09 11:30N 37°54' E 023°05'0 0.0
2018-Apr-09 11:00N 37°54' E 023°05'0 0.1
2018-Apr-09 10:30N 37°54' E 023°05'0 0.0
2018-Apr-09 10:00N 37°54' E 023°05'0 0.0
2018-Apr-09 09:30N 37°54' E 023°05'0 0.1
2018-Apr-09 09:00N 37°54' E 023°05'0 0.2
2018-Apr-09 08:30N 37°54' E 023°05'0 0.0
2018-Apr-09 08:00N 37°54' E 023°05'0 0.1
2018-Apr-09 07:30N 37°54' E 023°05'0 0.1
2018-Apr-09 07:00N 37°54' E 023°05'0 0.1
2018-Apr-09 06:30N 37°54' E 023°06'0 0.1
2018-Apr-09 06:00N 37°54' E 023°06'0 0.2
2018-Apr-09 05:30N 37°54' E 023°06'0 0.2
2018-Apr-09 05:00N 37°54' E 023°06'0 0.0
2018-Apr-09 04:30N 37°54' E 023°06'0 0.1
2018-Apr-09 04:00N 37°54' E 023°06'0 0.2
2018-Apr-09 03:30N 37°54' E 023°06'0 0.1
2018-Apr-09 03:00N 37°54' E 023°06'0 0.1
2018-Apr-09 02:30N 37°54' E 023°06'0 0.1
2018-Apr-09 02:00N 37°54' E 023°06'0 0.2
2018-Apr-09 01:30N 37°54' E 023°06'0 0.1
2018-Apr-09 01:00N 37°54' E 023°06'0 0.5
2018-Apr-09 00:30N 37°54' E 023°06'0 0.5
2018-Apr-09 00:00N 37°54' E 023°05'0 0.1
2018-Apr-08 23:30N 37°54' E 023°05'0 0.1
2018-Apr-08 23:00N 37°54' E 023°05'0 0.1
2018-Apr-08 22:30N 37°54' E 023°05'0 0.1
2018-Apr-08 22:00N 37°54' E 023°05'0 0.1
2018-Apr-08 21:30N 37°54' E 023°06'0 0.2
2018-Apr-08 21:00N 37°54' E 023°05'0 0.1
2018-Apr-08 20:30N 37°54' E 023°05'0 0.1
2018-Apr-08 20:00N 37°54' E 023°05'0 0.1
2018-Apr-08 19:30N 37°54' E 023°05'0 0.0
2018-Apr-08 19:00N 37°54' E 023°05'0 0.4
2018-Apr-08 18:30N 37°54' E 023°06'0 0.3
2018-Apr-08 18:00N 37°54' E 023°06'0 0.2
2018-Apr-08 17:30N 37°54' E 023°06'0 0.2
2018-Apr-08 17:00N 37°54' E 023°05'0 0.1
2018-Apr-08 16:30N 37°54' E 023°06'0 0.1
2018-Apr-08 16:00N 37°54' E 023°06'0 0.1
2018-Apr-08 15:30N 37°54' E 023°06'0 0.1
2018-Apr-08 15:00N 37°54' E 023°05'0 0.2
2018-Apr-08 14:30N 37°54' E 023°06'0 0.1
2018-Apr-08 14:00N 37°54' E 023°06'0 0.1
2018-Apr-08 13:30N 37°54' E 023°06'0 0.2
2018-Apr-08 13:00N 37°54' E 023°06'0 0.1
2018-Apr-08 12:30N 37°54' E 023°06'0 0.2
2018-Apr-08 12:00N 37°54' E 023°05'0 0.3
2018-Apr-08 11:30N 37°54' E 023°06'0 0.1
2018-Apr-08 11:00N 37°54' E 023°06'0 0.3
2018-Apr-08 10:30N 37°54' E 023°05'0 0.2
2018-Apr-08 10:00N 37°54' E 023°06'0 0.3
2018-Apr-08 09:30N 37°54' E 023°06'0 0.1
2018-Apr-08 09:00N 37°54' E 023°06'0 0.0
2018-Apr-08 08:30N 37°54' E 023°06'0 0.2
2018-Apr-08 08:00N 37°54' E 023°06'0 0.4
2018-Apr-08 07:30N 37°54' E 023°06'0 0.1
2018-Apr-08 07:00N 37°54' E 023°06'0 0.1
2018-Apr-08 06:30N 37°54' E 023°06'0 0.1
2018-Apr-08 06:00N 37°54' E 023°06'0 0.1
2018-Apr-08 05:30N 37°54' E 023°06'0 0.0
2018-Apr-08 05:00N 37°54' E 023°06'0 0.1
2018-Apr-08 04:30N 37°54' E 023°06'0 0.1
2018-Apr-08 04:00N 37°54' E 023°06'0 0.1
2018-Apr-08 03:30N 37°54' E 023°06'0 0.0
2018-Apr-08 03:00N 37°54' E 023°06'0 0.1
2018-Apr-08 02:30N 37°54' E 023°06'0 0.3
2018-Apr-08 02:00N 37°54' E 023°06'0 0.1
2018-Apr-08 01:30N 37°54' E 023°06'0 0.0
2018-Apr-08 01:00N 37°54' E 023°06'0 0.0
2018-Apr-08 00:30N 37°54' E 023°06'0 0.0
2018-Apr-08 00:00N 37°54' E 023°06'0 0.1
2018-Apr-07 23:30N 37°54' E 023°06'0 0.0
2018-Apr-07 23:00N 37°54' E 023°06'0 0.2
2018-Apr-07 22:30N 37°54' E 023°06'0 0.1
2018-Apr-07 22:00N 37°54' E 023°06'0 0.2
2018-Apr-07 21:30N 37°54' E 023°06'0 0.1
2018-Apr-07 21:00N 37°54' E 023°06'0 0.1
2018-Apr-07 20:30N 37°54' E 023°06'0 0.3
2018-Apr-07 20:00N 37°54' E 023°06'0 0.1
2018-Apr-07 19:30N 37°54' E 023°06'0 0.1
2018-Apr-07 19:00N 37°54' E 023°06'0 0.0
2018-Apr-07 18:30N 37°54' E 023°06'0 0.0
2018-Apr-07 18:00N 37°54' E 023°06'0 0.1
2018-Apr-07 17:30N 37°54' E 023°06'0 0.0
2018-Apr-07 17:00N 37°54' E 023°06'0 0.0
2018-Apr-07 16:30N 37°54' E 023°06'0 0.1
2018-Apr-07 16:00N 37°54' E 023°06'0 0.1
2018-Apr-07 15:30N 37°54' E 023°06'0 0.2
2018-Apr-07 15:00N 37°54' E 023°06'0 0.4
2018-Apr-07 14:30N 37°54' E 023°06'0 0.0
2018-Apr-07 14:00N 37°54' E 023°06'0 0.2
2018-Apr-07 13:30N 37°54' E 023°06'0 0.0
2018-Apr-07 13:00N 37°54' E 023°06'0 0.3
2018-Apr-07 12:30N 37°54' E 023°06'0 0.3
2018-Apr-07 12:00N 37°54' E 023°06'0 0.3
2018-Apr-07 11:30N 37°54' E 023°06'0 0.3
2018-Apr-07 11:00N 37°54' E 023°05'0 0.2
2018-Apr-07 10:30N 37°54' E 023°06'0 0.0
2018-Apr-07 10:00N 37°54' E 023°06'0 0.1
2018-Apr-07 09:30N 37°54' E 023°05'0 0.2
2018-Apr-07 09:00N 37°54' E 023°05'  

Dump ship's entire track history